Time;durP1;ratioP1;P1;durP2;ratioP2;P2;SDS_P1;SDS_P2;PMS_P1;PMS_P2;Temp;Humidity;BMP_temperature;BMP_pressure;BME280_temperature;BME280_humidity;BME280_pressure;Samples;Min_cycle;Max_cycle;Signal;HPM_P1;HPM_P2
2022/10/07 00:02:19;;;;;;;15.38;9.53;;;12.30;90.40;;;;;;1886264;76;21070;-59
2022/10/07 00:04:48;;;;;;;17.20;9.28;;;12.20;90.30;;;;;;1886251;75;21026;-58
2022/10/07 00:07:18;;;;;;;12.80;9.28;;;12.20;90.40;;;;;;1886212;75;21030;-58
2022/10/07 00:09:48;;;;;;;17.60;9.50;;;12.20;90.50;;;;;;1886043;76;21036;-58
2022/10/07 00:12:17;;;;;;;14.07;9.95;;;12.20;90.50;;;;;;1879934;75;21038;-58
2022/10/07 00:14:47;;;;;;;14.75;10.13;;;12.30;90.50;;;;;;1876974;75;21058;-58
2022/10/07 00:17:16;;;;;;;12.73;9.63;;;12.30;90.50;;;;;;1877022;76;21026;-58
2022/10/07 00:19:46;;;;;;;15.78;9.65;;;12.20;90.30;;;;;;1877109;75;21096;-58
2022/10/07 00:22:15;;;;;;;13.90;10.03;;;12.20;90.40;;;;;;1877095;76;21055;-58
2022/10/07 00:24:44;;;;;;;15.85;10.50;;;12.20;90.50;;;;;;1877060;76;20998;-58
2022/10/07 00:27:14;;;;;;;15.15;10.43;;;12.20;90.50;;;;;;1877053;76;21062;-58
2022/10/07 00:29:43;;;;;;;12.35;9.35;;;12.20;90.60;;;;;;1876941;76;21047;-59
2022/10/07 00:32:13;;;;;;;15.20;9.65;;;12.20;90.60;;;;;;1876895;76;21085;-58
2022/10/07 00:34:42;;;;;;;14.35;9.65;;;12.20;90.50;;;;;;1876995;76;21011;-58
2022/10/07 00:37:13;;;;;;;14.55;8.50;;;12.20;90.30;;;;;;1876600;76;21537;-58
2022/10/07 00:39:44;;;;;;;14.18;9.95;;;12.10;90.20;;;;;;1877088;76;21049;-58
2022/10/07 00:42:14;;;;;;;12.45;9.28;;;12.10;90.30;;;;;;1877178;76;21030;-58
2022/10/07 00:44:46;;;;;;;15.15;9.90;;;12.00;90.10;;;;;;1877201;76;21006;-58
2022/10/07 00:47:27;;;;;;;13.65;9.65;;;12.00;90.20;;;;;;1877193;76;20994;-58
2022/10/07 00:50:08;;;;;;;13.10;8.73;;;12.00;90.30;;;;;;1877084;76;21100;-58
2022/10/07 00:52:39;;;;;;;12.85;9.40;;;11.90;90.40;;;;;;1877094;76;21030;-58
2022/10/07 00:55:11;;;;;;;13.00;9.03;;;12.00;90.50;;;;;;1877131;76;21089;-58
2022/10/07 00:57:42;;;;;;;13.03;8.90;;;11.90;90.30;;;;;;1877085;76;21030;-58
2022/10/07 01:00:12;;;;;;;13.93;9.88;;;11.90;90.30;;;;;;1876996;75;21058;-58
2022/10/07 01:02:42;;;;;;;14.87;9.28;;;11.90;90.50;;;;;;1877125;76;21030;-58
2022/10/07 01:05:13;;;;;;;15.05;9.73;;;11.90;90.60;;;;;;1877130;76;21100;-58
2022/10/07 01:07:44;;;;;;;16.10;9.03;;;11.90;90.60;;;;;;1877192;76;21100;-58
2022/10/07 01:10:17;;;;;;;14.00;10.03;;;11.90;90.70;;;;;;1877028;76;21108;-59
2022/10/07 01:13:05;;;;;;;12.50;9.85;;;11.90;90.60;;;;;;1882746;76;21081;-58
2022/10/07 01:16:02;;;;;;;14.10;9.25;;;11.90;90.60;;;;;;1886398;76;21174;-58
2022/10/07 01:18:40;;;;;;;14.38;9.28;;;11.90;90.70;;;;;;1886353;76;21121;-58
2022/10/07 01:21:16;;;;;;;14.03;9.30;;;11.90;90.70;;;;;;1885965;76;21119;-58
2022/10/07 01:23:46;;;;;;;;;;;11.90;90.70;;;;;;1888222;76;21042;-58
2022/10/07 01:26:35;;;;;;;12.53;8.75;;;11.90;90.70;;;;;;1886248;76;20145;-58
2022/10/07 01:29:13;;;;;;;16.85;10.23;;;11.90;90.70;;;;;;1886273;75;21093;-58
2022/10/07 01:31:47;;;;;;;11.83;8.28;;;11.90;90.70;;;;;;1885308;76;21104;-58
2022/10/07 01:34:18;;;;;;;11.45;8.95;;;11.90;90.70;;;;;;1860266;76;21026;-58
2022/10/07 01:36:50;;;;;;;11.90;8.63;;;11.80;90.70;;;;;;1886259;76;21087;-58
2022/10/07 01:39:22;;;;;;;15.90;9.15;;;11.80;90.80;;;;;;1886372;75;21046;-58
2022/10/07 01:41:52;;;;;;;13.93;9.10;;;11.90;90.80;;;;;;1886243;75;21541;-58
2022/10/07 01:44:25;;;;;;;16.32;9.25;;;11.80;90.90;;;;;;1886250;75;21096;-58
2022/10/07 01:46:53;;;;;;;16.80;8.70;;;11.90;91.00;;;;;;1886203;75;21038;-58
2022/10/07 01:49:23;;;;;;;14.20;8.68;;;11.90;90.90;;;;;;1886354;75;21029;-58
2022/10/07 01:52:09;;;;;;;13.60;8.98;;;11.80;90.80;;;;;;1886260;75;21038;-58
2022/10/07 01:54:57;;;;;;;12.43;9.10;;;11.80;90.80;;;;;;1885984;75;21038;-58
2022/10/07 01:57:42;;;;;;;16.15;9.58;;;11.80;91.00;;;;;;1886279;76;21123;-58
2022/10/07 02:00:14;;;;;;;15.32;8.90;;;11.80;91.00;;;;;;1886644;76;21022;-58
2022/10/07 02:02:49;;;;;;;16.70;9.85;;;11.80;91.00;;;;;;1886176;76;21002;-58
2022/10/07 02:05:27;;;;;;;12.58;9.40;;;11.80;91.00;;;;;;1873745;76;21107;-58
2022/10/07 02:08:23;;;;;;;14.60;10.65;;;11.80;90.90;;;;;;1886274;75;21107;-58
2022/10/07 02:11:20;;;;;;;15.05;8.50;;;11.80;91.00;;;;;;1884947;76;21038;-58
2022/10/07 02:14:14;;;;;;;15.72;9.35;;;11.80;90.90;;;;;;1878668;75;21069;-58
2022/10/07 02:16:46;;;;;;;16.25;9.95;;;11.70;90.90;;;;;;1877131;76;21026;-57
2022/10/07 02:19:27;;;;;;;19.02;10.20;;;11.70;90.80;;;;;;1877050;76;21023;-57
2022/10/07 02:21:58;;;;;;;15.93;10.03;;;11.60;90.90;;;;;;1877062;75;21058;-57
2022/10/07 02:24:30;;;;;;;13.78;9.00;;;11.60;90.90;;;;;;1877145;76;21096;-57
2022/10/07 02:27:02;;;;;;;12.88;8.35;;;11.60;91.00;;;;;;1877187;76;21096;-57
2022/10/07 02:29:35;;;;;;;13.50;9.68;;;11.60;91.00;;;;;;1876502;76;21062;-57
2022/10/07 02:32:10;;;;;;;16.80;9.70;;;11.60;91.00;;;;;;1877138;75;21465;-57
2022/10/07 02:34:40;;;;;;;;;;;11.60;91.00;;;;;;1879398;76;21054;-57
2022/10/07 02:37:11;;;;;;;20.08;9.55;;;11.60;91.00;;;;;;1877141;76;20103;-57
2022/10/07 02:39:42;;;;;;;16.00;9.68;;;11.60;90.90;;;;;;1877142;76;21027;-57
2022/10/07 02:42:33;;;;;;;18.05;10.68;;;11.50;90.90;;;;;;1876939;76;21006;-57
2022/10/07 02:45:12;;;;;;;15.00;11.20;;;11.50;91.00;;;;;;1876543;76;21120;-57
2022/10/07 02:47:50;;;;;;;15.05;9.68;;;11.50;91.10;;;;;;1876597;75;21096;-57
2022/10/07 02:50:22;;;;;;;19.30;9.48;;;11.50;91.10;;;;;;1876913;75;21058;-57
2022/10/07 02:52:54;;;;;;;16.67;10.03;;;11.50;91.10;;;;;;1877060;76;21227;-57
2022/10/07 02:55:26;;;;;;;16.20;9.70;;;11.50;91.00;;;;;;1877005;76;21027;-57
2022/10/07 02:57:58;;;;;;;20.80;9.73;;;11.40;91.00;;;;;;1876990;76;21136;-57
2022/10/07 03:00:31;;;;;;;18.12;9.63;;;11.40;91.10;;;;;;1877126;76;21019;-57
2022/10/07 03:03:01;;;;;;;16.00;10.15;;;11.40;91.20;;;;;;1876893;76;21465;-57
2022/10/07 03:05:49;;;;;;;14.18;9.38;;;11.40;91.20;;;;;;1876838;75;21107;-57
2022/10/07 03:08:20;;;;;;;17.07;10.25;;;11.40;91.20;;;;;;1877126;76;21100;-58
2022/10/07 03:10:51;;;;;;;17.12;10.82;;;11.40;91.20;;;;;;1876914;76;21019;-58
2022/10/07 03:13:20;;;;;;;17.40;9.53;;;11.50;91.30;;;;;;1876986;76;21062;-58
2022/10/07 03:15:54;;;;;;;15.80;9.95;;;11.40;91.10;;;;;;1876916;76;21074;-58
2022/10/07 03:18:28;;;;;;;16.12;10.63;;;11.40;91.20;;;;;;1876904;75;21591;-58
2022/10/07 03:21:05;;;;;;;21.60;11.80;;;11.40;91.30;;;;;;1876535;76;21113;-58
2022/10/07 03:23:35;;;;;;;25.92;12.07;;;11.40;91.10;;;;;;1877089;76;21128;-58
2022/10/07 03:26:05;;;;;;;19.20;11.78;;;11.40;91.40;;;;;;1877099;75;21065;-58
2022/10/07 03:28:36;;;;;;;35.60;11.88;;;11.30;91.10;;;;;;1877052;76;21078;-58
2022/10/07 03:31:06;;;;;;;26.87;12.28;;;11.30;91.20;;;;;;1877051;76;21566;-58
2022/10/07 03:33:36;;;;;;;20.37;10.48;;;11.30;91.10;;;;;;1876977;76;21034;-58
2022/10/07 03:36:07;;;;;;;22.77;11.85;;;11.30;91.20;;;;;;1877064;76;21035;-58
2022/10/07 03:38:37;;;;;;;22.42;11.20;;;11.30;91.30;;;;;;1876947;76;21105;-58
2022/10/07 03:41:07;;;;;;;23.30;11.60;;;11.30;91.30;;;;;;1877060;76;21030;-57
2022/10/07 03:43:36;;;;;;;21.30;10.78;;;11.30;91.20;;;;;;1876934;75;21030;-58
2022/10/07 03:46:06;;;;;;;18.10;11.43;;;11.30;91.20;;;;;;1877015;76;21026;-58
2022/10/07 03:48:37;;;;;;;17.40;10.40;;;11.30;91.20;;;;;;1876877;76;21054;-57
2022/10/07 03:51:06;;;;;;;17.98;9.68;;;11.30;91.20;;;;;;1876911;75;21104;-58
2022/10/07 03:53:38;;;;;;;18.50;10.65;;;11.30;91.30;;;;;;1877016;76;21034;-58
2022/10/07 03:56:08;;;;;;;19.05;10.78;;;11.40;91.40;;;;;;1876940;76;21457;-57
2022/10/07 03:58:38;;;;;;;18.90;10.93;;;11.40;91.40;;;;;;1877025;76;21018;-58
2022/10/07 04:01:10;;;;;;;15.10;10.38;;;11.40;91.50;;;;;;1876940;75;21079;-58
2022/10/07 04:03:42;;;;;;;28.07;11.95;;;11.40;91.40;;;;;;1876720;75;21042;-58
2022/10/07 04:06:11;;;;;;;24.52;12.75;;;11.40;91.40;;;;;;1876880;76;21096;-58
2022/10/07 04:08:42;;;;;;;21.35;12.88;;;11.50;91.40;;;;;;1876958;76;21457;-57
2022/10/07 04:11:11;;;;;;;18.75;11.20;;;11.40;91.30;;;;;;1876906;76;21018;-58
2022/10/07 04:13:42;;;;;;;27.90;13.20;;;11.50;91.40;;;;;;1879680;74;21065;-58
2022/10/07 04:16:12;;;;;;;22.80;12.30;;;11.50;91.40;;;;;;1886049;75;21103;-58
2022/10/07 04:18:41;;;;;;;26.97;13.20;;;11.50;91.40;;;;;;1886142;76;21029;-58
2022/10/07 04:21:11;;;;;;;21.45;11.63;;;11.50;91.30;;;;;;1886000;76;21038;-57
2022/10/07 04:23:41;;;;;;;25.75;12.50;;;11.50;91.30;;;;;;1886132;74;21042;-58
2022/10/07 04:26:12;;;;;;;19.75;10.88;;;11.60;91.40;;;;;;1885980;76;21104;-58
2022/10/07 04:28:47;;;;;;;17.80;11.35;;;11.60;91.30;;;;;;1886185;76;21065;-58
2022/10/07 04:31:18;;;;;;;19.42;12.18;;;11.60;91.30;;;;;;1885745;76;21453;-58
2022/10/07 04:33:50;;;;;;;21.68;12.82;;;11.70;91.40;;;;;;1885745;74;21045;-58
2022/10/07 04:36:21;;;;;;;20.25;13.20;;;11.70;91.50;;;;;;1885218;74;21520;-58
2022/10/07 04:38:52;;;;;;;21.87;12.58;;;11.80;91.60;;;;;;1883924;74;21118;-57
2022/10/07 04:41:22;;;;;;;26.37;12.68;;;11.80;91.50;;;;;;1885170;74;21041;-58
2022/10/07 04:43:52;;;;;;;30.57;13.40;;;11.80;91.40;;;;;;1886226;76;21526;-57
2022/10/07 04:46:23;;;;;;;29.00;13.65;;;11.90;91.30;;;;;;1885949;75;21045;-57
2022/10/07 04:48:54;;;;;;;28.25;13.15;;;11.80;91.20;;;;;;1884945;76;21109;-57
2022/10/07 04:51:25;;;;;;;20.02;12.28;;;11.90;91.30;;;;;;1885923;75;21065;-57
2022/10/07 04:53:56;;;;;;;29.20;13.62;;;11.90;91.40;;;;;;1885932;76;21488;-57
2022/10/07 04:56:28;;;;;;;21.70;12.95;;;12.00;91.50;;;;;;1886155;76;21484;-58
2022/10/07 04:58:58;;;;;;;26.55;12.82;;;12.10;91.50;;;;;;1886285;76;21045;-58
2022/10/07 05:01:27;;;;;;;20.43;12.58;;;12.10;91.80;;;;;;1886054;75;21038;-58
2022/10/07 05:03:57;;;;;;;23.00;13.32;;;12.20;91.50;;;;;;1886042;76;21101;-57
2022/10/07 05:06:27;;;;;;;21.37;12.50;;;12.30;91.60;;;;;;1886194;76;21034;-58
2022/10/07 05:08:56;;;;;;;25.80;14.73;;;12.30;91.50;;;;;;1886149;76;21166;-58
2022/10/07 05:11:26;;;;;;;24.05;13.20;;;12.40;91.50;;;;;;1886111;75;21049;-58
2022/10/07 05:13:57;;;;;;;21.93;13.22;;;12.50;91.40;;;;;;1885106;75;21038;-58
2022/10/07 05:16:27;;;;;;;30.00;15.28;;;12.50;91.40;;;;;;1886204;75;21065;-57
2022/10/07 05:18:57;;;;;;;21.10;13.98;;;12.50;91.50;;;;;;1886212;74;21100;-58
2022/10/07 05:21:26;;;;;;;21.10;12.50;;;12.60;91.50;;;;;;1886301;74;21089;-58
2022/10/07 05:23:57;;;;;;;24.65;14.35;;;12.60;91.50;;;;;;1886238;76;21038;-57
2022/10/07 05:26:28;;;;;;;22.73;14.10;;;12.70;91.50;;;;;;1885580;75;21132;-58
2022/10/07 05:28:59;;;;;;;26.57;14.65;;;12.70;91.40;;;;;;1886233;75;21159;-58
2022/10/07 05:31:30;;;;;;;26.62;14.70;;;12.80;91.50;;;;;;1884717;75;21018;-58
2022/10/07 05:34:01;;;;;;;26.07;17.62;;;12.90;91.50;;;;;;1886239;76;21115;-58
2022/10/07 05:36:31;;;;;;;25.12;15.13;;;13.00;91.30;;;;;;1886278;76;21091;-58
2022/10/07 05:39:01;;;;;;;25.70;15.25;;;13.00;91.10;;;;;;1886215;74;21108;-57
2022/10/07 05:41:43;;;;;;;33.38;16.97;;;13.00;91.10;;;;;;1885219;75;21131;-58
2022/10/07 05:44:09;;;;;;;33.53;17.37;;;13.00;91.00;;;;;;1885136;75;21484;-57
2022/10/07 05:46:39;;;;;;;36.88;21.45;;;13.00;90.80;;;;;;1886187;75;21100;-57
2022/10/07 05:49:11;;;;;;;33.08;18.23;;;13.10;90.80;;;;;;1886176;75;21093;-58
2022/10/07 05:51:40;;;;;;;28.47;16.60;;;13.10;90.60;;;;;;1886179;75;21041;-57
2022/10/07 05:54:09;;;;;;;33.83;17.95;;;13.10;90.50;;;;;;1886141;75;21069;-58
2022/10/07 05:56:40;;;;;;;27.75;16.95;;;13.10;90.60;;;;;;1885758;75;21121;-58
2022/10/07 05:59:10;;;;;;;28.32;16.82;;;13.10;90.70;;;;;;1886258;76;21054;-58
2022/10/07 06:01:41;;;;;;;23.47;14.90;;;13.20;90.60;;;;;;1886356;75;21038;-58
2022/10/07 06:04:12;;;;;;;33.90;17.80;;;13.30;90.70;;;;;;1885642;76;21099;-58
2022/10/07 12:14:36;;;;;;;30.40;18.48;;;20.60;59.50;;;;;;1945137;73;21112;-58
2022/10/07 12:17:24;;;;;;;31.20;19.55;;;20.60;59.20;;;;;;1937291;73;21062;-59
2022/10/07 12:20:29;;;;;;;36.95;18.80;;;20.70;59.30;;;;;;1942148;73;21175;-58
2022/10/07 12:23:20;;;;;;;25.10;16.62;;;20.60;59.10;;;;;;1937924;73;21065;-58
2022/10/07 12:26:03;;;;;;;21.45;15.20;;;20.60;59.10;;;;;;1936842;73;21126;-59
2022/10/07 12:28:44;;;;;;;23.47;15.50;;;20.60;58.60;;;;;;1937591;73;21115;-58
2022/10/07 12:31:23;;;;;;;19.55;14.18;;;20.70;58.30;;;;;;1937513;73;21026;-59
2022/10/07 12:34:10;;;;;;;23.52;16.73;;;20.70;58.50;;;;;;1944129;73;21038;-59
2022/10/07 12:36:41;;;;;;;21.48;14.07;;;20.70;58.40;;;;;;1937550;73;21139;-59
2022/10/07 12:39:13;;;;;;;18.42;12.43;;;20.70;58.00;;;;;;1951622;73;21401;-59
2022/10/07 12:41:48;;;;;;;23.95;14.28;;;20.70;57.80;;;;;;1951342;73;21095;-59
2022/10/07 12:44:33;;;;;;;17.73;10.85;;;20.70;57.60;;;;;;1950912;73;21045;-59
2022/10/07 12:47:11;;;;;;;14.78;10.13;;;20.70;57.10;;;;;;1951386;73;21013;-58
2022/10/07 12:49:53;;;;;;;15.88;10.43;;;20.70;56.80;;;;;;1927218;73;21041;-59
2022/10/07 12:52:28;;;;;;;16.67;10.00;;;20.70;56.50;;;;;;1932479;73;21034;-59
2022/10/07 12:55:09;;;;;;;12.00;8.30;;;20.70;56.80;;;;;;1935687;73;21054;-59
2022/10/07 12:57:42;;;;;;;12.47;9.00;;;20.70;56.30;;;;;;1922541;73;21107;-59
2022/10/07 13:00:14;;;;;;;12.63;7.42;;;20.80;56.50;;;;;;1936068;74;21026;-59
2022/10/07 13:03:15;;;;;;;11.05;7.42;;;20.70;56.10;;;;;;1939270;73;20998;-59
2022/10/07 13:06:09;;;;;;;14.95;6.47;;;20.70;56.90;;;;;;1934314;73;21031;-59
2022/10/07 13:09:01;;;;;;;12.25;7.33;;;20.70;56.20;;;;;;1937100;73;21038;-59
2022/10/07 13:11:49;;;;;;;9.90;7.78;;;20.80;56.00;;;;;;1942221;74;21100;-60
2022/10/07 13:14:21;;;;;;;14.63;9.23;;;20.80;55.90;;;;;;1946813;73;21054;-60
2022/10/07 13:17:10;;;;;;;14.07;7.17;;;20.80;56.40;;;;;;1937014;73;21026;-59
2022/10/07 13:19:51;;;;;;;9.93;6.40;;;20.80;56.30;;;;;;1940138;74;21054;-60
2022/10/07 13:22:21;;;;;;;12.63;6.85;;;20.70;56.40;;;;;;1899370;73;21545;-59
2022/10/07 13:24:56;;;;;;;17.35;6.42;;;20.70;56.20;;;;;;1933598;73;21150;-59
2022/10/07 13:27:31;;;;;;;8.20;6.60;;;20.70;55.90;;;;;;1930420;73;21040;-59
2022/10/07 13:30:01;;;;;;;12.35;7.35;;;20.70;55.90;;;;;;1938532;73;21119;-60
2022/10/07 13:32:33;;;;;;;13.32;7.55;;;20.70;56.00;;;;;;1939814;73;21096;-60
2022/10/07 13:35:21;;;;;;;12.88;6.95;;;20.70;56.20;;;;;;1940046;73;21097;-60
2022/10/07 13:37:51;;;;;;;15.50;7.28;;;20.70;56.40;;;;;;1916677;74;21124;-60
2022/10/07 13:40:23;;;;;;;19.80;7.58;;;20.70;56.20;;;;;;1941897;74;21030;-59
2022/10/07 13:42:57;;;;;;;12.60;6.65;;;20.60;56.40;;;;;;1938049;73;21159;-59
2022/10/07 13:45:28;;;;;;;12.03;6.97;;;20.60;56.50;;;;;;1918021;73;21021;-57
2022/10/07 13:47:57;;;;;;;14.45;8.40;;;20.60;55.60;;;;;;1946816;73;21116;-59
2022/10/07 13:50:29;;;;;;;12.53;7.97;;;20.60;56.20;;;;;;1931206;73;21091;-60
2022/10/07 13:53:00;;;;;;;13.38;8.20;;;20.60;56.00;;;;;;1933691;73;21125;-60
2022/10/07 13:55:33;;;;;;;15.00;8.15;;;20.50;56.00;;;;;;1941538;73;21041;-59
2022/10/07 13:58:05;;;;;;;16.25;9.30;;;20.50;56.00;;;;;;1943191;73;21072;-60
2022/10/07 14:00:37;;;;;;;16.25;10.88;;;20.50;56.20;;;;;;1936576;73;21104;-60
2022/10/07 14:03:15;;;;;;;18.02;13.03;;;20.40;56.60;;;;;;1936225;73;21069;-60
2022/10/07 14:05:55;;;;;;;17.32;11.90;;;20.40;56.80;;;;;;1929525;73;21050;-60
2022/10/07 14:08:29;;;;;;;24.05;14.65;;;20.40;57.10;;;;;;1929589;73;21046;-60
2022/10/07 14:11:07;;;;;;;17.98;9.18;;;20.30;57.30;;;;;;1937486;73;21025;-60
2022/10/07 14:13:37;;;;;;;14.60;8.60;;;20.20;57.60;;;;;;1943888;73;21428;-59
2022/10/07 14:16:07;;;;;;;20.30;8.43;;;20.20;57.70;;;;;;1934380;73;21046;-59
2022/10/07 14:18:40;;;;;;;14.75;8.70;;;20.10;57.90;;;;;;1936932;74;21574;-59
2022/10/07 14:21:16;;;;;;;14.60;8.75;;;20.10;58.20;;;;;;1937871;73;21175;-59
2022/10/07 14:23:47;;;;;;;14.98;8.25;;;20.00;58.30;;;;;;1937976;73;21050;-59
2022/10/07 14:26:17;;;;;;;12.23;7.90;;;19.90;59.10;;;;;;1941849;73;21062;-59
2022/10/07 14:28:47;;;;;;;12.63;8.00;;;19.90;58.80;;;;;;1936381;73;21123;-59
2022/10/07 14:37:19;;;;;;;24.12;10.63;;;19.60;59.20;;;;;;1930245;73;21029;-59
2022/10/07 14:39:50;;;;;;;32.50;11.63;;;19.60;59.40;;;;;;1947399;73;21028;-59
2022/10/07 14:42:37;;;;;;;24.32;11.78;;;19.50;59.60;;;;;;1923998;73;21113;-59
2022/10/07 14:45:04;;;;;;;13.15;8.73;;;19.40;60.00;;;;;;1914191;73;21530;-59
2022/10/07 14:47:35;;;;;;;16.37;8.53;;;19.30;60.50;;;;;;1917998;73;21090;-59
2022/10/07 14:50:05;;;;;;;16.40;9.80;;;19.30;60.60;;;;;;1921983;73;21038;-59
2022/10/07 14:52:46;;;;;;;15.70;9.90;;;19.20;60.70;;;;;;1911061;73;21103;-59
2022/10/07 14:55:24;;;;;;;18.75;9.90;;;19.10;60.80;;;;;;1943779;73;21488;-59
2022/10/07 14:57:54;;;;;;;22.65;11.18;;;19.00;61.00;;;;;;1945280;73;21046;-59
2022/10/07 15:00:26;;;;;;;14.60;9.93;;;19.00;61.20;;;;;;1941958;73;21172;-59
2022/10/07 15:02:57;;;;;;;16.50;8.65;;;18.90;61.40;;;;;;1924084;73;21115;-59
2022/10/07 15:05:26;;;;;;;12.00;8.08;;;18.80;61.60;;;;;;1945778;73;21062;-59
2022/10/07 15:07:56;;;;;;;14.20;6.90;;;18.80;62.00;;;;;;1948086;73;21038;-59
2022/10/07 15:10:26;;;;;;;15.08;9.08;;;18.70;62.10;;;;;;1949386;73;21088;-59
2022/10/07 15:12:56;;;;;;;17.60;9.13;;;18.70;62.30;;;;;;1924535;73;21025;-59
2022/10/07 15:15:26;;;;;;;14.23;9.13;;;18.60;62.50;;;;;;1938352;73;21053;-59
2022/10/07 15:17:56;;;;;;;20.27;11.20;;;18.50;62.60;;;;;;1936837;73;21029;-59
2022/10/07 15:20:26;;;;;;;20.68;12.63;;;18.50;62.90;;;;;;1930456;73;21108;-59
2022/10/07 15:22:55;;;;;;;22.32;14.83;;;18.40;63.00;;;;;;1935168;73;21033;-59
2022/10/07 15:25:25;;;;;;;27.25;15.13;;;18.40;63.40;;;;;;1936964;73;21009;-59
2022/10/07 15:27:55;;;;;;;19.48;12.07;;;18.30;63.50;;;;;;1911150;73;21053;-59
2022/10/07 15:30:25;;;;;;;36.05;20.55;;;18.30;64.40;;;;;;1947560;73;21046;-59
2022/10/07 15:32:59;;;;;;;21.95;14.63;;;18.20;64.80;;;;;;1943254;73;21187;-59
2022/10/07 15:35:30;;;;;;;42.73;22.48;;;18.20;65.40;;;;;;1929516;73;21045;-58
2022/10/07 15:37:59;;;;;;;34.30;19.65;;;18.10;65.80;;;;;;1926438;73;21046;-59
2022/10/07 15:40:30;;;;;;;26.60;15.68;;;18.10;66.10;;;;;;1943181;73;21037;-59
2022/10/07 15:42:59;;;;;;;36.58;17.52;;;18.00;66.70;;;;;;1913495;74;21026;-59
2022/10/07 15:45:29;;;;;;;47.08;22.35;;;18.00;67.50;;;;;;1924933;74;21026;-59
2022/10/07 15:47:59;;;;;;;39.38;18.05;;;17.90;68.00;;;;;;1931542;73;21041;-59
2022/10/07 15:50:28;;;;;;;39.65;18.90;;;17.90;68.00;;;;;;1951323;73;21026;-59
2022/10/07 15:52:58;;;;;;;40.45;15.93;;;17.80;68.50;;;;;;1951390;73;21026;-59
2022/10/07 15:55:28;;;;;;;57.30;21.20;;;17.70;69.10;;;;;;1951551;73;21091;-59
2022/10/07 15:57:57;;;;;;;40.90;17.37;;;17.70;69.60;;;;;;1951381;73;21100;-59
2022/10/07 16:00:27;;;;;;;39.00;17.92;;;17.60;69.70;;;;;;1951434;73;21018;-59
2022/10/07 16:03:01;;;;;;;45.78;22.22;;;17.60;70.30;;;;;;1951470;73;21033;-59
2022/10/07 16:05:30;;;;;;;57.93;23.42;;;17.50;70.80;;;;;;1951330;73;21506;-59
2022/10/07 16:08:01;;;;;;;52.88;23.50;;;17.40;70.70;;;;;;1951289;73;21042;-59
2022/10/07 16:10:30;;;;;;;54.60;24.00;;;17.40;71.10;;;;;;1951338;73;21088;-59
2022/10/07 16:13:00;;;;;;;42.93;21.12;;;17.30;71.50;;;;;;1950229;73;21038;-59
2022/10/07 16:15:30;;;;;;;54.05;24.77;;;17.30;71.60;;;;;;1951291;73;20990;-59
2022/10/07 16:18:00;;;;;;;48.87;18.70;;;17.30;71.60;;;;;;1951399;73;21052;-59
2022/10/07 16:20:30;;;;;;;42.58;20.88;;;17.20;71.90;;;;;;1951342;73;21076;-59
2022/10/07 16:22:59;;;;;;;48.52;21.82;;;17.10;72.40;;;;;;1951228;73;21059;-59
2022/10/07 16:25:29;;;;;;;59.63;23.62;;;17.10;72.90;;;;;;1951407;73;21071;-59
2022/10/07 16:30:50;;;;;;;49.42;21.50;;;16.90;73.80;;;;;;1938004;73;21166;-59
2022/10/07 16:33:18;;;;;;;47.13;22.55;;;16.90;74.20;;;;;;1937137;73;21144;-59
2022/10/07 16:35:48;;;;;;;38.73;20.45;;;16.90;74.30;;;;;;1942052;74;21071;-59
2022/10/07 16:38:19;;;;;;;31.45;17.45;;;16.80;74.50;;;;;;1937196;73;21128;-59
2022/10/07 16:40:55;;;;;;;30.92;18.60;;;16.80;74.90;;;;;;1942068;73;21448;-59
2022/10/07 16:43:25;;;;;;;40.52;18.95;;;16.80;75.20;;;;;;1937564;73;21108;-59
2022/10/07 16:45:55;;;;;;;89.97;25.57;;;16.70;75.30;;;;;;1941947;73;21054;-59
2022/10/07 16:48:24;;;;;;;57.65;20.17;;;16.70;75.60;;;;;;1937898;73;21070;-59
2022/10/07 16:50:54;;;;;;;58.05;20.88;;;16.70;75.80;;;;;;1938085;73;21103;-59
2022/10/07 16:53:25;;;;;;;51.35;20.55;;;16.70;76.00;;;;;;1940655;73;21152;-59
2022/10/07 16:55:55;;;;;;;46.63;18.90;;;16.60;76.10;;;;;;1941994;74;21112;-59
2022/10/07 16:58:24;;;;;;;35.17;17.15;;;16.60;76.30;;;;;;1936511;73;21085;-59
2022/10/07 17:00:57;;;;;;;41.63;18.55;;;16.60;76.70;;;;;;1929331;73;21041;-59
2022/10/07 17:03:26;;;;;;;39.50;18.73;;;16.60;77.00;;;;;;1932648;73;21478;-59
2022/10/07 17:05:57;;;;;;;38.28;19.42;;;16.60;77.30;;;;;;1941438;73;21111;-59
2022/10/07 17:08:32;;;;;;;29.50;17.17;;;16.50;77.30;;;;;;1933375;73;21128;-59
2022/10/07 17:10:58;;;;;;;32.95;19.45;;;16.50;77.40;;;;;;1937900;73;21070;-59
2022/10/07 17:13:27;;;;;;;36.17;19.50;;;16.40;77.60;;;;;;1940483;74;21030;-59
2022/10/07 17:15:57;;;;;;;35.70;18.70;;;16.40;77.70;;;;;;1941384;73;21158;-59
2022/10/07 17:18:27;;;;;;;38.13;17.32;;;16.30;77.70;;;;;;1942061;73;21062;-59
2022/10/07 17:20:58;;;;;;;33.40;17.80;;;16.30;78.00;;;;;;1942770;73;21062;-59
2022/10/07 17:23:30;;;;;;;44.98;18.20;;;16.30;78.10;;;;;;1945696;73;21038;-59
2022/10/07 17:26:00;;;;;;;31.93;17.05;;;16.30;78.30;;;;;;1934174;73;21132;-59
2022/10/07 17:28:30;;;;;;;49.05;18.20;;;16.30;78.50;;;;;;1936794;73;21058;-59
2022/10/07 17:31:05;;;;;;;30.05;16.12;;;16.20;78.40;;;;;;1933827;73;21044;-59
2022/10/07 17:33:35;;;;;;;30.90;18.10;;;16.20;78.30;;;;;;1934882;73;21103;-59
2022/10/07 17:36:06;;;;;;;34.65;15.68;;;16.10;78.30;;;;;;1935262;73;21041;-59
2022/10/07 17:38:39;;;;;;;48.90;17.65;;;16.00;78.50;;;;;;1939786;73;21022;-59
2022/10/07 17:41:13;;;;;;;44.53;19.80;;;16.00;78.40;;;;;;1942063;73;21116;-59
2022/10/07 17:43:43;;;;;;;48.87;20.40;;;16.00;78.30;;;;;;1938276;73;21027;-59
2022/10/07 17:46:14;;;;;;;37.25;18.73;;;15.90;78.60;;;;;;1933617;73;21030;-59
2022/10/07 17:48:44;;;;;;;41.02;18.52;;;15.90;78.90;;;;;;1937436;73;21038;-59
2022/10/07 17:51:16;;;;;;;41.50;21.50;;;15.90;79.10;;;;;;1936412;73;21092;-59
2022/10/07 17:53:49;;;;;;;39.50;18.92;;;15.90;79.00;;;;;;1937931;73;21014;-59
2022/10/07 17:56:18;;;;;;;37.13;19.40;;;15.80;78.80;;;;;;1942098;74;21456;-59
2022/10/07 17:58:49;;;;;;;61.63;23.85;;;15.80;78.80;;;;;;1941889;73;21042;-59
2022/10/07 18:01:25;;;;;;;37.83;20.00;;;15.70;78.80;;;;;;1937848;73;21099;-59
2022/10/07 18:03:59;;;;;;;40.80;19.70;;;15.60;78.80;;;;;;1939165;73;21432;-59
2022/10/07 18:06:32;;;;;;;41.88;18.32;;;15.60;78.90;;;;;;1936326;73;21046;-59
2022/10/07 18:09:04;;;;;;;36.90;16.82;;;15.60;79.00;;;;;;1937592;73;21062;-59
2022/10/07 18:17:10;;;;;;;41.88;20.25;;;15.40;79.20;;;;;;1942076;74;21010;-59
2022/10/07 18:19:40;;;;;;;36.90;18.05;;;15.30;79.20;;;;;;1934285;73;21019;-59
2022/10/07 18:22:09;;;;;;;42.33;19.30;;;15.20;79.30;;;;;;1952006;73;21006;-59
2022/10/07 18:24:39;;;;;;;38.50;17.90;;;15.20;79.50;;;;;;1951588;73;21388;-60
2022/10/07 18:27:09;;;;;;;48.63;19.82;;;15.10;79.60;;;;;;1951493;73;20982;-59
2022/10/07 18:29:38;;;;;;;33.98;18.00;;;15.00;79.70;;;;;;1951554;73;21002;-59
2022/10/07 18:32:09;;;;;;;29.15;14.95;;;15.00;79.70;;;;;;1951431;73;21561;-59
2022/10/07 18:34:38;;;;;;;30.15;14.70;;;15.00;79.90;;;;;;1915537;74;21050;-59
2022/10/07 18:37:09;;;;;;;29.18;14.07;;;15.00;79.90;;;;;;1923922;73;21051;-60
2022/10/07 18:39:39;;;;;;;23.40;12.85;;;14.90;79.90;;;;;;1927799;73;21521;-58
2022/10/07 18:42:09;;;;;;;20.65;10.90;;;14.90;79.80;;;;;;1948133;73;21076;-59
2022/10/07 18:44:38;;;;;;;24.35;12.98;;;14.90;80.00;;;;;;1945868;73;21031;-59
2022/10/07 18:47:08;;;;;;;27.02;15.55;;;14.90;80.60;;;;;;1948168;73;21098;-59
2022/10/07 18:49:38;;;;;;;29.95;12.50;;;14.90;80.70;;;;;;1946985;73;21115;-59
2022/10/07 18:52:08;;;;;;;19.35;11.03;;;14.90;80.60;;;;;;1929418;73;21104;-60
2022/10/07 18:54:38;;;;;;;26.57;12.33;;;14.90;80.50;;;;;;1911557;73;21096;-59
2022/10/07 18:57:07;;;;;;;32.33;12.47;;;14.80;80.70;;;;;;1932956;73;21091;-59
2022/10/07 18:59:37;;;;;;;25.10;11.80;;;14.80;80.80;;;;;;1948657;73;21128;-59
2022/10/07 19:02:10;;;;;;;20.77;11.25;;;14.80;81.00;;;;;;1942886;73;21159;-59
2022/10/07 19:04:40;;;;;;;21.42;11.22;;;14.80;81.10;;;;;;1948387;73;21074;-59
2022/10/07 19:07:09;;;;;;;15.25;10.65;;;14.80;81.00;;;;;;1948778;73;21050;-59
2022/10/07 19:09:39;;;;;;;23.65;11.38;;;14.80;81.30;;;;;;1931216;73;21160;-59
2022/10/07 19:13:46;;;;;;;16.67;11.08;;;14.80;81.50;;;;;;1942192;73;21097;-59
2022/10/07 19:14:40;;;;;;;18.27;11.45;;;14.80;81.70;;;;;;1948400;73;21514;-59
2022/10/07 19:17:11;;;;;;;20.00;11.43;;;14.80;81.90;;;;;;1941904;73;21046;-59
2022/10/07 19:19:41;;;;;;;18.98;11.10;;;14.80;81.60;;;;;;1943395;73;21518;-59
2022/10/07 19:22:13;;;;;;;22.60;11.80;;;14.80;81.30;;;;;;1948765;73;21030;-59